首页
METAR-TAF:

METAR-TAF

机场 :

Dole, 法国

纬度: 47-02-34N, 经度: 005-26-06E, 海拔: 196米

当前天气观测

该预报发布于28分钟前的01:30 UTC
风速3节,风向东转东北
温度 -1°C
湿度 100%
气压 1009 hPa
能見度: 6000

METAR: LFGJ 170130Z AUTO 06003KT 6000 NSC M01/M01 Q1009

时间: 02:58 (01:58 UTC)

预报

该预报发布于11小时和55分钟前的14:03 UTC
预报有效从16日的 15点(UTC)到 16日的 24点(UTC)
风速4节,风向东转东北
能见度10公里或以上
少量云层高于2500英尺
多云层高于22000英尺
成为
从 16日的 19点(UTC)到 16日的 21点(UTC)
能見度: 5000
轻雾
短暂存在
从 16日的 21点(UTC)到 16日的 24点(UTC)
能見度: 0800

TAF: LFGJ 161403Z 1615/1624 07004KT 9999 FEW025 BKN220 BECMG 1619/1621 5000 BR TEMPO 1621/1624 0800 FG

超过4000个机场的气象观测和天气预报(METAR&TAF报告)。

可查询的气象台以黄色和红色小点在地图上表示。

将鼠标移到小点上方,可查看气象台名称。

然后点击查看天气观测和预报。

如需切换地图:点击带黑十字的绿色按钮放大地图;点击带横线的绿色按钮缩小地图;或者点击绿色箭头查看邻近地区的地图。


METAR-TAF: